Time;durP1;ratioP1;P1;durP2;ratioP2;P2;SDS_P1;SDS_P2;PMS_P1;PMS_P2;Temp;Humidity;BMP_temperature;BMP_pressure;BME280_temperature;BME280_humidity;BME280_pressure;Samples;Min_cycle;Max_cycle;Signal;HPM_P1;HPM_P2
2023/12/22 06:32:01;;;;;;;;;;;;;;;10.08;76.33;96794.69;4278222;27;10295;-74
2023/12/22 06:34:05;;;;;;;;;;;;;;;10.33;75.61;96795.97;4268824;27;5661;-74
2023/12/22 06:36:08;;;;;;;;;;;;;;;10.54;75.20;96796.94;4261491;27;5669;-71
2023/12/22 06:38:12;;;;;;;;;;;;;;;10.74;74.51;96805.81;4253388;27;5658;-74
2023/12/22 06:40:16;;;;;;;;;;;;;;;10.89;74.16;96803.06;4258273;27;5784;-74
2023/12/22 06:42:18;;;;;;;;;;;;;;;10.98;73.62;96823.84;4263186;27;6338;-74
2023/12/22 06:44:21;;;;;;;;;;;;;;;11.09;73.16;96823.31;4260716;27;5839;-74
2023/12/22 06:46:25;;;;;;;;;;;;;;;11.18;72.67;96842.50;4272085;27;5637;-74
2023/12/22 06:48:31;;;;;;;;;;;;;;;11.25;72.46;96835.41;4260337;27;5661;-74
2023/12/22 06:50:36;;;;;;;;;;;;;;;11.32;71.85;96825.66;4266970;27;5795;-74
2023/12/22 06:52:39;;;;;;;;;;;;;;;11.38;71.79;96816.94;4268955;27;5645;-74
2023/12/22 06:54:43;;;;;;;;;;;;;;;11.44;71.20;96823.28;4265692;27;5753;-74
2023/12/22 06:56:46;;;;;;;;;;;;;;;11.46;70.99;96820.44;4260966;27;6383;-74
2023/12/22 06:58:50;;;;;;;;;;;;;;;11.51;70.90;96824.13;4270720;27;5613;-74
2023/12/22 07:00:52;;;;;;;;;;;;;;;11.52;70.50;96831.03;4263307;27;5625;-74
2023/12/22 07:02:56;;;;;;;;;;;;;;;11.52;70.19;96832.88;4268324;27;6405;-73
2023/12/22 07:05:36;;;;;;;;;;;;;;;11.54;70.12;96834.31;4264743;27;5641;-74
2023/12/22 07:07:38;;;;;;;;;;;;;;;11.56;70.08;96832.31;4264801;27;5771;-73
2023/12/22 07:09:41;;;;;;;;;;;;;;;11.56;69.50;96837.59;4267161;27;5664;-74
2023/12/22 07:11:46;;;;;;;;;;;;;;;11.59;69.29;96834.53;4265236;27;5892;-74
2023/12/22 07:13:49;;;;;;;;;;;;;;;11.61;68.94;96834.34;4270167;27;5670;-74
2023/12/22 07:15:52;;;;;;;;;;;;;;;11.63;69.08;96832.31;4271180;27;5645;-72
2023/12/22 07:17:57;;;;;;;;;;;;;;;11.63;68.56;96830.47;4270446;27;5643;-74
2023/12/22 07:19:59;;;;;;;;;;;;;;;11.64;68.86;96837.41;4264943;27;5673;-73
2023/12/22 07:22:04;;;;;;;;;;;;;;;11.65;68.73;96844.31;4270318;27;5621;-74
2023/12/22 07:24:06;;;;;;;;;;;;;;;11.65;68.81;96841.69;4259523;27;5646;-74
2023/12/22 07:26:09;;;;;;;;;;;;;;;11.66;68.30;96840.69;4263627;27;5826;-74
2023/12/22 07:28:12;;;;;;;;;;;;;;;11.65;68.32;96841.69;4261405;27;5852;-73
2023/12/22 07:30:16;;;;;;;;;;;;;;;11.67;67.83;96854.75;4257872;27;5633;-74
2023/12/22 07:32:18;;;;;;;;;;;;;;;11.67;67.63;96854.75;4262888;27;5605;-73
2023/12/22 07:34:22;;;;;;;;;;;;;;;11.66;67.55;96866.31;4249996;27;5728;-74
2023/12/22 07:36:25;;;;;;;;;;;;;;;11.64;67.14;96876.31;4257997;27;5807;-74
2023/12/22 07:38:30;;;;;;;;;;;;;;;11.64;66.56;96885.06;4256624;27;5071;-73
2023/12/22 07:40:33;;;;;;;;;;;;;;;11.63;66.48;96891.38;4257616;27;7682;-74
2023/12/22 07:42:35;;;;;;;;;;;;;;;11.64;66.58;96881.59;4248428;27;5735;-74
2023/12/22 07:44:37;;;;;;;;;;;;;;;11.65;66.69;96884.03;4258902;27;6966;-74
2023/12/22 07:46:40;;;;;;;;;;;;;;;11.68;66.63;96880.22;4251451;27;5629;-74
2023/12/22 07:48:45;;;;;;;;;;;;;;;11.68;66.36;96887.34;4255827;27;5701;-73
2023/12/22 07:50:48;;;;;;;;;;;;;;;11.66;66.69;96885.72;4260346;27;5613;-74
2023/12/22 07:52:53;;;;;;;;;;;;;;;11.66;66.46;96891.00;4250650;27;5632;-75
2023/12/22 07:54:56;;;;;;;;;;;;;;;11.66;66.50;96895.44;4256822;27;5785;-74
2023/12/22 07:57:00;;;;;;;;;;;;;;;11.66;66.21;96895.44;4249963;27;5669;-66
2023/12/22 07:59:04;;;;;;;;;;;;;;;11.65;66.02;96904.41;4249826;27;5613;-65
2023/12/22 08:01:25;;;;;;;;;;;;;;;11.63;66.10;96912.56;4259186;27;5620;-66
2023/12/22 08:03:28;;;;;;;;;;;;;;;11.62;66.51;96920.72;4258194;27;6326;-66
2023/12/22 08:05:31;;;;;;;;;;;;;;;11.65;66.03;96921.13;4259400;27;5621;-66
2023/12/22 08:07:33;;;;;;;;;;;;;;;11.64;66.23;96935.38;4260028;27;5613;-65
2023/12/22 08:09:36;;;;;;;;;;;;;;;11.65;66.27;96938.84;4252334;27;5802;-65
2023/12/22 08:11:41;;;;;;;;;;;;;;;11.65;66.26;96960.84;4257993;27;5621;-65
2023/12/22 08:13:44;;;;;;;;;;;;;;;11.65;66.23;96978.56;4250300;27;5637;-66
2023/12/22 08:15:47;;;;;;;;;;;;;;;11.62;66.40;96974.47;4258864;27;5657;-65
2023/12/22 08:17:51;;;;;;;;;;;;;;;11.60;66.39;96981.81;4249785;27;5677;-66
2023/12/22 08:19:56;;;;;;;;;;;;;;;11.60;66.55;96976.50;4249433;27;5759;-65
2023/12/22 08:22:08;;;;;;;;;;;;;;;11.61;66.28;96980.78;4249158;27;5630;-66
2023/12/22 08:24:12;;;;;;;;;;;;;;;11.59;66.64;96974.88;4250259;27;5644;-65
2023/12/22 08:26:24;;;;;;;;;;;;;;;11.63;66.49;96985.88;4252998;27;5768;-66
2023/12/22 08:28:28;;;;;;;;;;;;;;;11.62;66.69;96982.41;4256483;27;5624;-65
2023/12/22 08:30:33;;;;;;;;;;;;;;;11.64;66.67;96993.63;4250977;27;5640;-65
2023/12/22 08:32:36;;;;;;;;;;;;;;;11.63;66.71;96993.84;4258571;27;5720;-65
2023/12/22 08:34:39;;;;;;;;;;;;;;;11.64;66.60;96995.47;4249409;27;5629;-65
2023/12/22 08:36:42;;;;;;;;;;;;;;;11.65;66.67;96994.44;4241353;27;5737;-66
2023/12/22 08:38:45;;;;;;;;;;;;;;;11.65;66.32;96997.91;4257830;27;5835;-65
2023/12/22 08:40:49;;;;;;;;;;;;;;;11.68;66.47;96998.56;4243240;27;5783;-65
2023/12/22 08:42:59;;;;;;;;;;;;;;;11.69;66.04;97000.19;4240074;28;5646;-65
2023/12/22 08:45:05;;;;;;;;;;;;;;;11.71;66.12;96992.88;4256523;27;5657;-65
2023/12/22 08:47:08;;;;;;;;;;;;;;;11.73;66.28;97001.44;4248376;27;6551;-65
2023/12/22 08:49:11;;;;;;;;;;;;;;;11.73;65.99;97009.38;4249116;27;5731;-66
2023/12/22 08:51:14;;;;;;;;;;;;;;;11.72;65.83;97018.34;4240838;28;5654;-65
2023/12/22 08:53:17;;;;;;;;;;;;;;;11.72;65.64;97005.91;4243527;27;5622;-65
2023/12/22 08:55:20;;;;;;;;;;;;;;;11.75;65.61;97005.50;4249704;27;5621;-66
2023/12/22 08:57:23;;;;;;;;;;;;;;;11.75;65.39;96996.75;4249510;27;5648;-65
2023/12/22 08:59:25;;;;;;;;;;;;;;;11.74;65.04;97000.41;4246450;27;5666;-66
2023/12/22 09:01:30;;;;;;;;;;;;;;;11.74;64.55;97003.06;4246168;27;5641;-66
2023/12/22 09:03:35;;;;;;;;;;;;;;;11.71;65.09;97006.94;4244994;27;5649;-66
2023/12/22 09:05:39;;;;;;;;;;;;;;;11.71;64.92;97014.06;4247078;27;5617;-66
2023/12/22 09:07:42;;;;;;;;;;;;;;;11.66;64.79;97011.97;4249189;27;5625;-66
2023/12/22 09:09:45;;;;;;;;;;;;;;;11.63;64.76;97013.19;4249809;27;5649;-65
2023/12/22 09:11:48;;;;;;;;;;;;;;;11.62;65.18;97016.03;4249362;27;5613;-65
2023/12/22 09:13:51;;;;;;;;;;;;;;;11.63;65.01;97023.78;4249092;27;5640;-65
2023/12/22 09:15:57;;;;;;;;;;;;;;;11.64;64.92;97024.59;4250981;27;5628;-66
2023/12/22 09:18:02;;;;;;;;;;;;;;;11.66;65.00;97030.50;4255834;27;5668;-65
2023/12/22 09:20:07;;;;;;;;;;;;;;;11.69;64.72;97032.78;4249176;27;5653;-66
2023/12/22 09:22:09;;;;;;;;;;;;;;;11.70;64.72;97023.00;4248814;27;5630;-65
2023/12/22 09:24:13;;;;;;;;;;;;;;;11.72;65.08;97036.88;4249326;27;5850;-65
2023/12/22 09:26:17;;;;;;;;;;;;;;;11.72;64.96;97026.28;4253385;27;5733;-66
2023/12/22 09:28:20;;;;;;;;;;;;;;;11.74;64.91;97029.53;4254250;27;5621;-66
2023/12/22 09:30:23;;;;;;;;;;;;;;;11.75;64.63;97031.19;4246348;27;6350;-65
2023/12/22 09:32:27;;;;;;;;;;;;;;;11.73;64.60;97033.22;4253041;27;5705;-65
2023/12/22 09:34:33;;;;;;;;;;;;;;;11.71;64.68;97041.34;4242071;28;5642;-65
2023/12/22 09:36:36;;;;;;;;;;;;;;;11.73;64.85;97043.81;4241773;28;5795;-66
2023/12/22 09:38:41;;;;;;;;;;;;;;;11.74;64.74;97045.44;4256122;27;5624;-66
2023/12/22 09:40:43;;;;;;;;;;;;;;;11.75;64.87;97049.72;4250154;27;5652;-66
2023/12/22 09:42:47;;;;;;;;;;;;;;;11.75;64.71;97044.44;4247111;27;5748;-65
2023/12/22 09:44:53;;;;;;;;;;;;;;;11.78;64.78;97051.97;4247245;27;5720;-66
2023/12/22 09:46:57;;;;;;;;;;;;;;;11.78;64.67;97046.69;4249983;27;5650;-66
2023/12/22 09:49:02;;;;;;;;;;;;;;;11.77;64.85;97042.41;4247029;27;5654;-66
2023/12/22 09:51:08;;;;;;;;;;;;;;;11.78;64.90;97041.38;4249875;27;5625;-66
2023/12/22 09:53:13;;;;;;;;;;;;;;;11.80;64.55;97040.22;4250786;27;5475;-66
2023/12/22 09:55:17;;;;;;;;;;;;;;;11.82;64.51;97032.09;4256915;27;5078;-65
2023/12/22 09:57:20;;;;;;;;;;;;;;;11.84;64.80;97032.69;4253528;27;8412;-64
2023/12/22 09:59:31;;;;;;;;;;;;;;;11.85;64.62;97032.50;4247166;27;5656;-65
2023/12/22 10:01:34;;;;;;;;;;;;;;;11.86;64.81;97022.72;4247204;27;5621;-64
2023/12/22 10:03:38;;;;;;;;;;;;;;;11.86;64.51;97018.25;4249760;27;5676;-65
2023/12/22 10:05:43;;;;;;;;;;;;;;;11.83;64.27;97021.28;4257358;27;5868;-65
2023/12/22 10:07:49;;;;;;;;;;;;;;;11.82;64.67;97014.34;4246985;27;5658;-65
2023/12/22 10:09:53;;;;;;;;;;;;;;;11.85;64.65;97015.78;4241081;27;5650;-65
2023/12/22 10:11:56;;;;;;;;;;;;;;;11.87;64.39;97014.56;4253688;27;5723;-67
2023/12/22 10:26:17;;;;;;;;;;;;;;;11.99;64.55;96996.28;4266535;27;10273;-70
2023/12/22 10:28:24;;;;;;;;;;;;;;;12.06;64.45;96994.50;4269363;27;6848;-71
2023/12/22 10:30:28;;;;;;;;;;;;;;;12.12;64.18;96984.97;4269713;27;5642;-70
2023/12/22 10:32:31;;;;;;;;;;;;;;;12.16;64.24;96986.19;4276289;27;5609;-71
2023/12/22 10:34:34;;;;;;;;;;;;;;;12.18;64.08;96981.50;4271977;27;5691;-72
2023/12/22 10:36:37;;;;;;;;;;;;;;;12.17;63.90;96974.56;4266426;27;5807;-70
2023/12/22 10:38:42;;;;;;;;;;;;;;;12.16;63.82;96968.44;4260248;27;5586;-68
2023/12/22 10:40:46;;;;;;;;;;;;;;;12.19;63.82;96964.56;4269225;27;5630;-69
2023/12/22 10:42:52;;;;;;;;;;;;;;;12.20;63.69;96964.38;4265582;27;5567;-69
2023/12/22 10:44:57;;;;;;;;;;;;;;;12.21;63.80;96958.06;4270104;27;5648;-69
2023/12/22 10:47:02;;;;;;;;;;;;;;;12.24;63.88;96954.22;4271613;27;5736;-71
2023/12/22 10:49:08;;;;;;;;;;;;;;;12.22;63.41;96957.03;4273016;27;5674;-72
2023/12/22 10:51:11;;;;;;;;;;;;;;;12.20;63.59;96956.44;4271915;27;5752;-71
2023/12/22 10:53:15;;;;;;;;;;;;;;;12.18;63.37;96950.50;4271887;27;5588;-70
2023/12/22 10:55:22;;;;;;;;;;;;;;;12.15;63.52;96953.56;4287485;27;5575;-70
2023/12/22 10:57:25;;;;;;;;;;;;;;;12.12;63.56;96956.63;4277302;27;5601;-70
2023/12/22 10:59:31;;;;;;;;;;;;;;;12.11;63.36;96952.31;4268648;27;7394;-70
2023/12/22 11:01:38;;;;;;;;;;;;;;;12.14;63.78;96951.13;4268087;27;5598;-71
2023/12/22 11:03:44;;;;;;;;;;;;;;;12.14;63.56;96936.03;4271509;27;5621;-71
2023/12/22 11:05:49;;;;;;;;;;;;;;;12.15;63.59;96942.97;4264479;27;5575;-70
2023/12/22 11:07:56;;;;;;;;;;;;;;;12.11;63.29;96944.34;4269543;27;5717;-71
2023/12/22 11:10:04;;;;;;;;;;;;;;;12.04;63.26;96940.06;4265402;27;7307;-69
2023/12/22 11:12:08;;;;;;;;;;;;;;;11.95;63.32;96936.78;4268367;27;5865;-70
2023/12/22 11:14:13;;;;;;;;;;;;;;;11.90;63.75;96934.72;4267594;27;5642;-71
2023/12/22 11:16:18;;;;;;;;;;;;;;;11.91;63.60;96931.06;4261796;27;5605;-71
2023/12/22 11:18:22;;;;;;;;;;;;;;;11.86;63.83;96932.66;4262969;27;5605;-69
2023/12/22 11:20:26;;;;;;;;;;;;;;;11.87;63.96;96932.44;4273424;27;5650;-69
2023/12/22 11:22:32;;;;;;;;;;;;;;;11.84;64.05;96924.91;4271475;27;5585;-70
2023/12/22 11:24:37;;;;;;;;;;;;;;;11.84;64.03;96924.09;4267454;27;5593;-68
2023/12/22 11:26:42;;;;;;;;;;;;;;;11.82;64.24;96936.72;4266564;27;5567;-71
2023/12/22 11:28:45;;;;;;;;;;;;;;;11.78;64.05;96930.13;4269530;27;5583;-70
2023/12/22 11:30:52;;;;;;;;;;;;;;;11.74;64.37;96936.84;4259424;27;5673;-72
2023/12/22 11:33:01;;;;;;;;;;;;;;;11.75;64.63;96930.53;4257695;27;5579;-70
2023/12/22 11:35:07;;;;;;;;;;;;;;;11.74;64.63;96928.91;4254336;27;5671;-70
2023/12/22 11:37:12;;;;;;;;;;;;;;;11.79;64.66;96942.38;4258622;27;5603;-70
2023/12/22 11:39:15;;;;;;;;;;;;;;;11.80;64.39;96931.63;4252115;27;5593;-70
2023/12/22 11:41:22;;;;;;;;;;;;;;;11.83;64.67;96927.75;4272339;27;5556;-70
2023/12/22 11:43:26;;;;;;;;;;;;;;;11.88;64.70;96925.31;4253452;27;5869;-71
2023/12/22 11:45:32;;;;;;;;;;;;;;;11.91;64.43;96932.91;4251659;27;5672;-68
2023/12/22 11:47:35;;;;;;;;;;;;;;;11.91;64.59;96931.06;4253544;27;5590;-70
2023/12/22 11:49:40;;;;;;;;;;;;;;;11.96;64.36;96930.47;4257944;27;5694;-71
2023/12/22 11:51:44;;;;;;;;;;;;;;;11.96;64.49;96930.47;4254614;27;5799;-70
2023/12/22 11:53:46;;;;;;;;;;;;;;;11.91;64.26;96914.34;4260657;27;5588;-71
2023/12/22 11:56:03;;;;;;;;;;;;;;;11.92;64.43;96919.44;4260574;27;5579;-70
2023/12/22 11:58:37;;;;;;;;;;;;;;;11.94;64.30;96912.13;4266954;27;5575;-70
2023/12/22 12:00:41;;;;;;;;;;;;;;;11.96;64.27;96903.97;4262602;27;5673;-70
2023/12/22 12:02:44;;;;;;;;;;;;;;;11.96;64.30;96911.91;4252757;27;5609;-69
2023/12/22 12:04:49;;;;;;;;;;;;;;;11.94;64.46;96903.34;4249625;27;5606;-71
2023/12/22 12:06:52;;;;;;;;;;;;;;;11.96;64.47;96911.91;4254994;27;5795;-70
2023/12/22 12:08:56;;;;;;;;;;;;;;;11.98;64.70;96904.56;4254627;27;5587;-71
2023/12/22 12:11:00;;;;;;;;;;;;;;;12.02;64.65;96900.53;4272063;27;5598;-70
2023/12/22 12:13:06;;;;;;;;;;;;;;;12.04;64.59;96906.44;4258858;27;5690;-71
2023/12/22 12:15:13;;;;;;;;;;;;;;;12.04;64.81;96898.50;4263129;27;5639;-71
2023/12/22 12:17:20;;;;;;;;;;;;;;;12.02;64.79;96902.38;4248279;27;5610;-71
2023/12/22 12:19:22;;;;;;;;;;;;;;;12.04;64.63;96902.97;4259134;27;5669;-70
2023/12/22 12:21:27;;;;;;;;;;;;;;;12.03;64.78;96901.34;4258071;27;5691;-70
2023/12/22 12:23:29;;;;;;;;;;;;;;;12.02;64.68;96911.13;4250171;27;5668;-70
2023/12/22 12:25:34;;;;;;;;;;;;;;;12.00;64.97;96894.59;4252841;27;5610;-70
2023/12/22 12:27:40;;;;;;;;;;;;;;;11.98;65.05;96891.31;4254429;27;5587;-70
2023/12/22 12:29:42;;;;;;;;;;;;;;;11.98;64.82;96886.03;4253212;27;5582;-70
2023/12/22 12:31:46;;;;;;;;;;;;;;;11.95;65.26;96884.59;4253665;27;5575;-70
2023/12/22 12:33:48;;;;;;;;;;;;;;;11.93;65.06;96885.81;4258438;27;5602;-71
2023/12/22 12:35:53;;;;;;;;;;;;;;;11.86;65.37;96884.97;4240240;27;5589;-71
2023/12/22 12:37:59;;;;;;;;;;;;;;;11.82;65.51;96892.50;4248245;27;5678;-70
2023/12/22 12:40:04;;;;;;;;;;;;;;;11.79;65.61;96892.06;4255567;27;5730;-71
2023/12/22 12:42:08;;;;;;;;;;;;;;;11.72;65.66;96885.91;4252825;27;5732;-71
2023/12/22 12:44:12;;;;;;;;;;;;;;;11.62;65.74;96895.03;4240467;27;5617;-70
2023/12/22 12:46:15;;;;;;;;;;;;;;;11.54;65.65;96897.84;4245234;27;5574;-69
2023/12/22 12:48:17;;;;;;;;;;;;;;;11.58;66.12;96893.81;4250086;27;5791;-70
2023/12/22 12:50:22;;;;;;;;;;;;;;;11.64;66.05;96879.78;4250875;27;5769;-69
2023/12/22 12:52:26;;;;;;;;;;;;;;;11.71;66.04;96881.63;4248206;27;5772;-69
2023/12/22 12:54:32;;;;;;;;;;;;;;;11.77;66.26;96886.13;4249984;27;5666;-68
2023/12/22 12:56:40;;;;;;;;;;;;;;;11.80;66.08;96891.09;4242800;27;5714;-68
2023/12/22 12:58:43;;;;;;;;;;;;;;;11.81;66.35;96893.53;4250794;27;5582;-68
2023/12/22 13:00:46;;;;;;;;;;;;;;;11.82;66.02;96894.34;4248579;27;5851;-71
2023/12/22 13:02:49;;;;;;;;;;;;;;;11.82;66.33;96889.03;4238617;27;5593;-74
2023/12/22 13:04:52;;;;;;;;;;;;;;;11.84;66.05;96884.38;4251521;27;5594;-74
2023/12/22 13:06:58;;;;;;;;;;;;;;;11.86;66.33;96885.78;4254414;27;5661;-72
2023/12/22 13:09:02;;;;;;;;;;;;;;;11.89;66.19;96876.63;4233944;27;5766;-80
2023/12/22 13:11:07;;;;;;;;;;;;;;;11.93;66.21;96885.81;4235253;27;5800;-69
2023/12/22 13:13:10;;;;;;;;;;;;;;;11.96;66.31;96877.47;4250072;27;5803;-68
2023/12/22 13:15:12;;;;;;;;;;;;;;;11.98;66.16;96880.72;4240346;27;5699;-74
2023/12/22 13:17:16;;;;;;;;;;;;;;;12.00;66.00;96876.03;4248359;27;5923;-72
2023/12/22 13:19:19;;;;;;;;;;;;;;;12.02;65.99;96875.88;4233351;27;5596;-67
2023/12/22 13:21:23;;;;;;;;;;;;;;;12.02;65.91;96881.97;4249636;27;5598;-68
2023/12/22 13:23:25;;;;;;;;;;;;;;;12.03;66.08;96891.56;4249559;27;5586;-68
2023/12/22 13:25:29;;;;;;;;;;;;;;;12.07;66.12;96886.69;4237089;27;5605;-68
2023/12/22 13:27:45;;;;;;;;;;;;;;;12.06;66.12;96879.75;4237254;27;5593;-68
2023/12/22 13:29:48;;;;;;;;;;;;;;;12.06;65.79;96871.78;4247150;27;5411;-68
2023/12/22 13:31:51;;;;;;;;;;;;;;;12.08;65.95;96873.22;4244790;27;7682;-68
2023/12/22 13:33:55;;;;;;;;;;;;;;;12.10;65.88;96881.78;4237141;27;5716;-69
2023/12/22 13:35:58;;;;;;;;;;;;;;;12.10;65.71;96879.13;4240349;27;5589;-69
2023/12/22 13:38:02;;;;;;;;;;;;;;;12.11;65.93;96877.28;4248129;27;5709;-69
2023/12/22 13:40:09;;;;;;;;;;;;;;;12.13;65.80;96873.44;4243825;27;6291;-69
2023/12/22 13:42:17;;;;;;;;;;;;;;;12.12;65.58;96884.25;4249559;27;5598;-68
2023/12/22 13:44:21;;;;;;;;;;;;;;;12.14;65.87;96884.88;4239206;27;5782;-65
2023/12/22 13:46:28;;;;;;;;;;;;;;;12.11;65.69;96882.59;4234092;27;5612;-68
2023/12/22 13:48:31;;;;;;;;;;;;;;;12.04;65.41;96887.09;4241037;27;5679;-69
2023/12/22 13:50:36;;;;;;;;;;;;;;;12.04;65.45;96893.19;4241017;27;5875;-75
2023/12/22 13:52:38;;;;;;;;;;;;;;;12.03;65.44;96894.22;4239771;27;5727;-73
2023/12/22 13:54:42;;;;;;;;;;;;;;;12.02;65.49;96889.94;4242231;27;5570;-67
2023/12/22 13:56:46;;;;;;;;;;;;;;;12.04;65.68;96892.38;4246837;27;5579;-67
2023/12/22 13:58:49;;;;;;;;;;;;;;;12.08;65.55;96880.34;4236322;27;5589;-74
2023/12/22 14:00:54;;;;;;;;;;;;;;;12.05;65.50;96870.97;4245617;27;5587;-83
2023/12/22 14:02:57;;;;;;;;;;;;;;;12.06;65.37;96875.25;4249837;27;5701;-78
2023/12/22 14:05:00;;;;;;;;;;;;;;;12.08;65.76;96883.81;4248347;27;6307;-66
2023/12/22 14:07:04;;;;;;;;;;;;;;;12.09;65.38;96888.09;4239682;27;5693;-67
2023/12/22 14:09:07;;;;;;;;;;;;;;;12.10;65.63;96887.06;4242243;27;5792;-69
2023/12/22 14:11:10;;;;;;;;;;;;;;;12.14;65.43;96898.13;4238759;27;5616;-70
2023/12/22 14:13:12;;;;;;;;;;;;;;;12.17;65.56;96897.72;4246785;27;5591;-69
2023/12/22 14:15:15;;;;;;;;;;;;;;;12.17;65.42;96898.53;4248617;27;5614;-67
2023/12/22 14:17:20;;;;;;;;;;;;;;;12.15;65.41;96895.25;4250002;27;5677;-71
2023/12/22 14:19:23;;;;;;;;;;;;;;;12.13;65.31;96897.31;4250407;27;5657;-67
2023/12/22 14:21:26;;;;;;;;;;;;;;;12.12;65.44;96895.66;4249192;27;5570;-73
2023/12/22 14:23:28;;;;;;;;;;;;;;;12.13;65.22;96905.25;4247825;27;5597;-81
2023/12/22 14:25:31;;;;;;;;;;;;;;;12.15;65.57;96908.50;4249833;27;6283;-74
2023/12/22 14:27:35;;;;;;;;;;;;;;;12.16;65.52;96904.84;4244055;27;5788;-69
2023/12/22 14:29:40;;;;;;;;;;;;;;;12.15;65.34;96900.56;4241557;27;5578;-68
2023/12/22 14:31:43;;;;;;;;;;;;;;;12.13;65.03;96902.59;4245992;27;6290;-74
2023/12/22 14:33:47;;;;;;;;;;;;;;;12.15;65.16;96902.41;4244024;27;5776;-73
2023/12/22 14:35:49;;;;;;;;;;;;;;;12.16;65.21;96909.31;4247991;27;5609;-70
2023/12/22 14:37:52;;;;;;;;;;;;;;;12.16;64.96;96896.06;4256431;27;5578;-70
2023/12/22 14:39:55;;;;;;;;;;;;;;;12.15;65.03;96903.22;4240216;27;5725;-71
2023/12/22 14:41:59;;;;;;;;;;;;;;;12.15;65.02;96902.41;4247826;27;5664;-71
2023/12/22 14:44:02;;;;;;;;;;;;;;;12.17;64.89;96903.00;4249754;27;5799;-67
2023/12/22 14:46:06;;;;;;;;;;;;;;;12.12;64.87;96906.28;4247700;27;6224;-71
2023/12/22 14:48:09;;;;;;;;;;;;;;;12.09;64.77;96901.34;4238822;27;5114;-74
2023/12/22 14:50:13;;;;;;;;;;;;;;;12.08;65.17;96902.38;4244306;27;5717;-67
2023/12/22 14:52:16;;;;;;;;;;;;;;;12.10;64.96;96912.75;4243170;27;5596;-72
2023/12/22 14:54:19;;;;;;;;;;;;;;;12.09;64.96;96905.84;4245432;27;5657;-73
2023/12/22 14:56:22;;;;;;;;;;;;;;;12.07;64.79;96908.69;4249535;27;5825;-69
2023/12/22 14:58:25;;;;;;;;;;;;;;;12.06;65.07;96907.06;4248138;27;5641;-63
2023/12/22 15:00:29;;;;;;;;;;;;;;;12.07;65.06;96913.97;4238309;27;5597;-72
2023/12/22 15:02:31;;;;;;;;;;;;;;;12.07;64.73;96919.28;4242835;27;5596;-67
2023/12/22 15:04:37;;;;;;;;;;;;;;;12.05;64.97;96929.28;4242493;27;5563;-70
2023/12/22 15:06:43;;;;;;;;;;;;;;;12.07;64.75;96918.47;4241598;27;5773;-63
2023/12/22 15:08:46;;;;;;;;;;;;;;;12.08;64.75;96910.31;4240879;27;5570;-63
2023/12/22 15:10:49;;;;;;;;;;;;;;;12.10;65.05;96912.75;4243636;27;5756;-62
2023/12/22 15:12:53;;;;;;;;;;;;;;;12.10;64.80;96923.38;4239209;27;5877;-62
2023/12/22 15:14:55;;;;;;;;;;;;;;;12.09;64.77;96919.09;4245383;27;5787;-62
2023/12/22 15:16:58;;;;;;;;;;;;;;;12.10;64.90;96918.88;4250514;27;5575;-76
2023/12/22 15:19:01;;;;;;;;;;;;;;;12.11;64.89;96909.09;4246770;27;5620;-66
2023/12/22 15:21:05;;;;;;;;;;;;;;;12.13;64.82;96912.38;4250880;27;5594;-66
2023/12/22 15:23:09;;;;;;;;;;;;;;;12.11;64.86;96904.63;4251741;27;5737;-66
2023/12/22 15:25:12;;;;;;;;;;;;;;;12.02;64.79;96927.03;4246336;27;5866;-66
2023/12/22 15:27:15;;;;;;;;;;;;;;;11.95;65.06;96915.59;4242595;27;5587;-66
2023/12/22 15:29:18;;;;;;;;;;;;;;;11.97;65.03;96920.69;4262090;27;5586;-66
2023/12/22 15:31:21;;;;;;;;;;;;;;;12.03;65.32;96923.38;4249425;27;5604;-66
2023/12/22 15:33:24;;;;;;;;;;;;;;;12.06;65.05;96924.78;4245002;27;5717;-67
2023/12/22 15:35:26;;;;;;;;;;;;;;;12.08;65.28;96926.22;4243289;27;5560;-66
2023/12/22 15:37:29;;;;;;;;;;;;;;;12.09;65.44;96927.84;4244275;27;5743;-66
2023/12/22 15:39:38;;;;;;;;;;;;;;;12.11;65.14;96932.94;4225758;27;5999;-67
2023/12/22 15:41:40;;;;;;;;;;;;;;;12.12;65.46;96938.06;4250978;27;5590;-65
2023/12/22 15:43:43;;;;;;;;;;;;;;;12.10;65.52;96939.25;4252116;27;5754;-67
2023/12/22 15:45:46;;;;;;;;;;;;;;;12.09;65.26;96935.78;4252635;27;5744;-66
2023/12/22 15:47:49;;;;;;;;;;;;;;;12.10;65.20;96945.38;4260241;27;6386;-66
2023/12/22 15:49:52;;;;;;;;;;;;;;;12.12;65.20;96943.38;4243417;27;5595;-66
2023/12/22 15:51:55;;;;;;;;;;;;;;;12.11;65.32;96957.63;4247400;27;5653;-67
2023/12/22 15:53:58;;;;;;;;;;;;;;;12.13;65.35;96963.56;4259547;27;5683;-65
2023/12/22 15:56:07;;;;;;;;;;;;;;;12.12;65.22;96959.28;4261718;27;6983;-66
2023/12/22 15:58:09;;;;;;;;;;;;;;;12.12;65.22;96961.94;4255398;27;5624;-66
2023/12/22 16:00:14;;;;;;;;;;;;;;;12.14;65.22;96962.53;4256957;27;5678;-66
2023/12/22 16:02:17;;;;;;;;;;;;;;;12.15;65.17;96969.47;4249441;27;5703;-66
2023/12/22 16:04:20;;;;;;;;;;;;;;;12.14;65.23;96962.53;4249402;27;5661;-66
2023/12/22 16:06:22;;;;;;;;;;;;;;;12.14;65.12;96973.13;4254121;27;5598;-67
2023/12/22 16:08:26;;;;;;;;;;;;;;;12.08;65.10;96963.31;4261949;27;5788;-68
2023/12/22 16:10:28;;;;;;;;;;;;;;;12.07;65.29;96969.63;4255429;27;5787;-66
2023/12/22 16:12:35;;;;;;;;;;;;;;;12.06;65.34;96965.34;4249133;27;6291;-65
2023/12/22 16:14:38;;;;;;;;;;;;;;;12.06;65.17;96959.25;4252522;27;5586;-67
2023/12/22 16:16:40;;;;;;;;;;;;;;;12.05;65.22;96963.72;4261056;27;5740;-65
2023/12/22 16:18:43;;;;;;;;;;;;;;;12.08;64.80;96962.50;4256755;27;5575;-66
2023/12/22 16:20:46;;;;;;;;;;;;;;;12.08;64.58;96965.97;4251110;27;5598;-67
2023/12/22 16:22:50;;;;;;;;;;;;;;;12.08;64.67;96971.25;4251133;27;5689;-67
2023/12/22 16:24:53;;;;;;;;;;;;;;;12.10;64.65;96965.75;4248264;27;5582;-67
2023/12/22 16:26:57;;;;;;;;;;;;;;;12.10;64.36;96969.22;4250134;27;5753;-67
2023/12/22 16:29:02;;;;;;;;;;;;;;;12.12;64.36;96961.09;4259227;27;5579;-67
2023/12/22 16:31:05;;;;;;;;;;;;;;;12.10;64.02;96966.56;4247163;27;5843;-66
2023/12/22 16:33:06;;;;;;;;;;;;;;;12.09;64.01;96958.84;4247905;27;5674;-66
2023/12/22 16:35:09;;;;;;;;;;;;;;;12.09;63.85;96961.47;4254463;27;5570;-66
2023/12/22 16:37:13;;;;;;;;;;;;;;;12.09;63.78;96962.28;4251474;27;6272;-66
2023/12/22 16:39:15;;;;;;;;;;;;;;;12.11;64.02;96973.50;4246217;27;5647;-65
2023/12/22 16:41:18;;;;;;;;;;;;;;;12.13;64.15;96987.41;4241412;27;5591;-66
2023/12/22 16:43:21;;;;;;;;;;;;;;;12.16;63.67;96979.06;4251035;27;5753;-66
2023/12/22 16:45:25;;;;;;;;;;;;;;;12.19;63.74;96993.72;4251426;27;5923;-66
2023/12/22 16:47:30;;;;;;;;;;;;;;;12.23;63.67;97000.25;4250003;27;5690;-66
2023/12/22 16:49:36;;;;;;;;;;;;;;;12.25;64.02;97000.91;4251379;27;5677;-67
2023/12/22 16:51:39;;;;;;;;;;;;;;;12.28;63.67;96994.38;4251002;27;5579;-67
2023/12/22 16:53:42;;;;;;;;;;;;;;;12.29;63.88;96993.38;4252014;27;5752;-67
2023/12/22 16:55:45;;;;;;;;;;;;;;;12.30;63.89;96998.47;4251316;27;5564;-66
2023/12/22 16:57:48;;;;;;;;;;;;;;;12.33;63.54;96997.25;4249646;27;5696;-66
2023/12/22 16:59:51;;;;;;;;;;;;;;;12.33;63.56;97008.66;4249439;27;5815;-66
2023/12/22 17:01:55;;;;;;;;;;;;;;;12.31;63.71;96997.44;4249667;27;5698;-67
2023/12/22 17:04:18;;;;;;;;;;;;;;;12.29;63.73;97003.97;4249076;27;5598;-66
2023/12/22 17:06:21;;;;;;;;;;;;;;;12.28;63.61;97005.81;4250763;27;5582;-66
2023/12/22 17:08:25;;;;;;;;;;;;;;;12.28;63.68;97010.28;4252720;27;5578;-65
2023/12/22 17:10:28;;;;;;;;;;;;;;;12.30;63.49;97010.91;4252856;27;5586;-67
2023/12/22 17:12:32;;;;;;;;;;;;;;;12.29;63.29;97011.91;4251840;27;5684;-66
2023/12/22 17:14:35;;;;;;;;;;;;;;;12.31;63.38;97015.19;4251295;27;6423;-66
2023/12/22 17:16:38;;;;;;;;;;;;;;;12.31;63.24;97020.47;4252144;27;5790;-65
2023/12/22 17:18:43;;;;;;;;;;;;;;;12.30;63.22;97024.97;4244421;27;5584;-65
2023/12/22 17:20:46;;;;;;;;;;;;;;;12.29;63.11;97014.56;4250305;27;5661;-65
2023/12/22 17:23:00;;;;;;;;;;;;;;;12.28;63.46;97015.59;4258135;27;5559;-65
2023/12/22 17:25:04;;;;;;;;;;;;;;;12.29;63.45;97017.22;4258368;27;5651;-66
2023/12/22 17:27:08;;;;;;;;;;;;;;;12.29;63.43;97022.53;4251828;27;5684;-65
2023/12/22 17:29:10;;;;;;;;;;;;;;;12.30;63.20;97029.47;4259583;27;5570;-65
2023/12/22 17:31:14;;;;;;;;;;;;;;;12.30;63.25;97042.72;4245016;27;5594;-66
2023/12/22 17:33:17;;;;;;;;;;;;;;;12.31;63.22;97047.00;4245546;27;5652;-71
2023/12/22 17:35:21;;;;;;;;;;;;;;;12.32;63.18;97048.63;4258197;27;5579;-69
2023/12/22 17:37:24;;;;;;;;;;;;;;;12.33;63.27;97051.06;4238942;27;5712;-72
2023/12/22 17:39:26;;;;;;;;;;;;;;;12.32;63.42;97051.28;4252953;27;5736;-69